Time;durP1;ratioP1;P1;durP2;ratioP2;P2;SDS_P1;SDS_P2;PMS_P1;PMS_P2;Temp;Humidity;BMP_temperature;BMP_pressure;BME280_temperature;BME280_humidity;BME280_pressure;Samples;Min_cycle;Max_cycle;Signal;HPM_P1;HPM_P2
2023/09/23 00:02:17;;;;;;;0.80;0.80;;;15.10;99.90;;;;;;5037227;28;20204;-71
2023/09/23 00:04:45;;;;;;;0.80;0.80;;;15.10;99.90;;;;;;5020927;28;20203;-71
2023/09/23 00:07:12;;;;;;;0.95;0.75;;;15.10;99.90;;;;;;5035663;28;20219;-71
2023/09/23 00:09:39;;;;;;;0.90;0.80;;;15.10;99.90;;;;;;5037563;28;20203;-71
2023/09/23 00:12:06;;;;;;;0.80;0.80;;;15.00;99.90;;;;;;5035504;28;20235;-71
2023/09/23 00:14:34;;;;;;;0.82;0.82;;;15.00;99.90;;;;;;5034587;28;20226;-71
2023/09/23 00:17:03;;;;;;;0.90;0.90;;;15.00;99.90;;;;;;5039367;28;20271;-71
2023/09/23 00:19:34;;;;;;;0.93;0.80;;;15.00;99.90;;;;;;5035689;28;20305;-71
2023/09/23 00:22:02;;;;;;;0.80;0.80;;;15.00;99.90;;;;;;5034537;28;20743;-72
2023/09/23 00:24:29;;;;;;;0.80;0.80;;;14.90;99.90;;;;;;5035981;28;20203;-71
2023/09/23 00:26:59;;;;;;;0.80;0.80;;;14.90;99.90;;;;;;5038588;28;20700;-71
2023/09/23 00:29:28;;;;;;;0.93;0.93;;;14.80;99.90;;;;;;5034454;28;20214;-72
2023/09/23 00:31:57;;;;;;;1.38;0.88;;;14.70;99.90;;;;;;5037119;28;20230;-70
2023/09/23 00:34:24;;;;;;;0.80;0.80;;;14.60;99.90;;;;;;5020043;28;20653;-71
2023/09/23 00:36:53;;;;;;;0.82;0.82;;;14.50;99.90;;;;;;5040434;28;20227;-71
2023/09/23 00:39:21;;;;;;;1.00;1.00;;;14.40;99.90;;;;;;5038752;28;20262;-71
2023/09/23 00:41:48;;;;;;;1.27;1.17;;;14.50;99.90;;;;;;5036336;28;20217;-71
2023/09/23 00:44:16;;;;;;;0.80;0.80;;;14.50;99.90;;;;;;5034353;28;20203;-71
2023/09/23 00:46:45;;;;;;;0.80;0.80;;;14.50;99.90;;;;;;5037754;28;20265;-71
2023/09/23 00:49:14;;;;;;;2.72;1.00;;;14.50;99.90;;;;;;5017643;28;20727;-71
2023/09/23 00:51:41;;;;;;;0.95;0.85;;;14.50;99.90;;;;;;5035018;28;20207;-72
2023/09/23 00:54:13;;;;;;;1.00;0.98;;;14.50;99.90;;;;;;5037945;28;20199;-72
2023/09/23 00:56:42;;;;;;;0.80;0.80;;;14.50;99.90;;;;;;5031027;28;20333;-71
2023/09/23 00:59:11;;;;;;;0.60;0.60;;;14.50;99.90;;;;;;5021578;28;20215;-72
2023/09/23 01:01:39;;;;;;;1.10;0.82;;;14.50;99.90;;;;;;5037129;28;20224;-71
2023/09/23 01:04:08;;;;;;;0.90;0.90;;;14.60;99.90;;;;;;5018848;28;20202;-71
2023/09/23 01:06:35;;;;;;;0.75;0.75;;;14.50;99.90;;;;;;5036747;28;20242;-71
2023/09/23 01:09:10;;;;;;;1.10;1.00;;;14.50;99.90;;;;;;5039662;28;20264;-71
2023/09/23 01:11:38;;;;;;;0.80;0.80;;;14.50;99.90;;;;;;5036034;28;20580;-71
2023/09/23 01:14:06;;;;;;;1.58;0.85;;;14.50;99.90;;;;;;5038792;28;20252;-71
2023/09/23 01:16:33;;;;;;;0.80;0.80;;;14.50;99.90;;;;;;5038749;28;20292;-71
2023/09/23 01:19:00;;;;;;;0.75;0.75;;;14.50;99.90;;;;;;5034305;28;20301;-71
2023/09/23 01:21:27;;;;;;;0.80;0.80;;;14.50;99.90;;;;;;5041012;28;20618;-72
2023/09/23 01:23:55;;;;;;;0.80;0.80;;;14.50;99.90;;;;;;5035806;28;20207;-71
2023/09/23 01:26:23;;;;;;;0.93;0.93;;;14.50;99.90;;;;;;5037841;28;20281;-72
2023/09/23 01:28:50;;;;;;;0.75;0.75;;;14.50;99.90;;;;;;5032882;28;20910;-71
2023/09/23 01:31:21;;;;;;;0.90;0.90;;;14.50;99.90;;;;;;5039153;28;20597;-71
2023/09/23 01:33:48;;;;;;;0.80;0.80;;;14.50;99.90;;;;;;5042169;28;20679;-71
2023/09/23 01:36:16;;;;;;;0.77;0.77;;;14.50;99.90;;;;;;5038872;28;20226;-71
2023/09/23 01:38:43;;;;;;;0.68;0.68;;;14.40;99.90;;;;;;5037502;28;20273;-70
2023/09/23 01:41:11;;;;;;;1.02;0.90;;;14.40;99.90;;;;;;5033308;28;20260;-71
2023/09/23 01:43:38;;;;;;;1.30;0.90;;;14.40;99.90;;;;;;5041327;28;20259;-71
2023/09/23 01:46:06;;;;;;;1.38;0.73;;;14.30;99.90;;;;;;5037650;28;20249;-71
2023/09/23 01:48:33;;;;;;;0.70;0.70;;;14.30;99.90;;;;;;5037614;28;20202;-71
2023/09/23 01:51:01;;;;;;;0.85;0.85;;;14.30;99.90;;;;;;5017855;28;20202;-71
2023/09/23 01:53:28;;;;;;;0.70;0.70;;;14.30;99.90;;;;;;5033295;28;20208;-71
2023/09/23 01:55:55;;;;;;;0.80;0.80;;;14.30;99.90;;;;;;5034206;28;20222;-71
2023/09/23 01:58:24;;;;;;;0.82;0.82;;;14.20;99.90;;;;;;5035079;28;21174;-71
2023/09/23 02:00:53;;;;;;;0.80;0.80;;;14.30;99.90;;;;;;5037742;28;20196;-71
2023/09/23 02:03:22;;;;;;;0.80;0.80;;;14.30;99.90;;;;;;5033665;28;20207;-71
2023/09/23 02:05:49;;;;;;;0.70;0.70;;;14.30;99.90;;;;;;5033737;28;20243;-71
2023/09/23 02:08:16;;;;;;;1.30;0.90;;;14.30;99.90;;;;;;5031615;28;20203;-71
2023/09/23 02:10:45;;;;;;;0.80;0.80;;;14.30;99.90;;;;;;5043042;28;20203;-72
2023/09/23 02:13:12;;;;;;;0.82;0.80;;;14.30;99.90;;;;;;5037402;28;20199;-71
2023/09/23 02:15:41;;;;;;;0.70;0.70;;;14.30;99.90;;;;;;5042951;28;20230;-71
2023/09/23 02:18:08;;;;;;;1.77;1.10;;;14.20;99.90;;;;;;5038807;28;20767;-72
2023/09/23 02:20:35;;;;;;;0.88;0.88;;;14.20;99.90;;;;;;5038749;28;20249;-71
2023/09/23 02:23:05;;;;;;;0.77;0.77;;;14.20;99.90;;;;;;5035742;28;20397;-71
2023/09/23 02:25:33;;;;;;;0.90;0.90;;;14.10;99.90;;;;;;5043616;28;20223;-72
2023/09/23 02:28:00;;;;;;;0.80;0.80;;;14.10;99.90;;;;;;5039246;28;20214;-70
2023/09/23 02:30:27;;;;;;;0.80;0.80;;;14.10;99.90;;;;;;5037920;28;20199;-71
2023/09/23 02:32:58;;;;;;;1.27;0.90;;;14.10;99.90;;;;;;5038411;28;20256;-71
2023/09/23 02:35:25;;;;;;;1.58;0.70;;;14.20;99.90;;;;;;5038314;28;20241;-70
2023/09/23 02:37:53;;;;;;;1.00;1.00;;;14.20;99.90;;;;;;5042887;28;20803;-70
2023/09/23 02:40:20;;;;;;;0.98;0.65;;;14.20;99.90;;;;;;5042802;28;20215;-70
2023/09/23 02:42:51;;;;;;;0.90;0.90;;;14.10;99.90;;;;;;5039889;28;20289;-72
2023/09/23 02:45:20;;;;;;;0.80;0.80;;;14.10;99.90;;;;;;5021441;28;20603;-72
2023/09/23 02:47:47;;;;;;;0.60;0.60;;;14.10;99.90;;;;;;5041767;28;20202;-72
2023/09/23 02:50:17;;;;;;;0.60;0.60;;;14.10;99.90;;;;;;5042710;28;20200;-71
2023/09/23 02:52:48;;;;;;;1.42;0.80;;;14.10;99.90;;;;;;5042122;28;20202;-71
2023/09/23 02:55:16;;;;;;;0.70;0.70;;;14.10;99.90;;;;;;5038338;28;20231;-71
2023/09/23 02:57:48;;;;;;;3.35;0.85;;;14.10;99.90;;;;;;5039871;28;20238;-71
2023/09/23 03:00:22;;;;;;;0.80;0.80;;;14.10;99.90;;;;;;5041250;28;20223;-71
2023/09/23 03:02:54;;;;;;;0.70;0.70;;;14.10;99.90;;;;;;5039461;28;20397;-71
2023/09/23 03:05:26;;;;;;;0.60;0.60;;;14.10;99.90;;;;;;5040979;28;20951;-71
2023/09/23 03:07:57;;;;;;;0.85;0.80;;;14.00;99.90;;;;;;5039905;28;20295;-72
2023/09/23 03:10:31;;;;;;;0.55;0.55;;;14.00;99.90;;;;;;5038948;28;20229;-70
2023/09/23 03:13:06;;;;;;;0.73;0.73;;;14.00;99.90;;;;;;5039799;28;20210;-70
2023/09/23 03:15:41;;;;;;;0.82;0.82;;;13.90;99.90;;;;;;5039340;28;20764;-70
2023/09/23 03:18:09;;;;;;;0.80;0.80;;;13.90;99.90;;;;;;5038188;28;20256;-71
2023/09/23 03:20:40;;;;;;;0.70;0.70;;;13.90;99.90;;;;;;5041289;28;20206;-70
2023/09/23 03:23:09;;;;;;;0.73;0.73;;;13.90;99.90;;;;;;5041835;28;20302;-70
2023/09/23 03:25:43;;;;;;;0.80;0.80;;;13.90;99.90;;;;;;5037185;28;20227;-71
2023/09/23 03:28:10;;;;;;;0.80;0.80;;;13.90;99.90;;;;;;5036481;28;20265;-71
2023/09/23 03:30:37;;;;;;;0.65;0.65;;;13.90;99.90;;;;;;5034273;28;20199;-71
2023/09/23 03:33:06;;;;;;;0.77;0.77;;;13.90;99.90;;;;;;5041903;28;20206;-71
2023/09/23 03:35:37;;;;;;;3.00;0.75;;;13.90;99.90;;;;;;5038827;28;20223;-71
2023/09/23 03:38:04;;;;;;;0.80;0.80;;;13.90;99.90;;;;;;5037714;28;20252;-71
2023/09/23 03:40:31;;;;;;;1.10;0.90;;;13.80;99.90;;;;;;5035254;28;20218;-71
2023/09/23 03:43:01;;;;;;;0.98;0.98;;;13.80;99.90;;;;;;5038317;28;20217;-71
2023/09/23 03:45:28;;;;;;;0.70;0.70;;;13.70;99.90;;;;;;5038115;28;20227;-71
2023/09/23 03:47:55;;;;;;;0.80;0.80;;;13.70;99.90;;;;;;5036322;28;20195;-71
2023/09/23 03:50:22;;;;;;;0.82;0.82;;;13.70;99.90;;;;;;5021043;28;20258;-71
2023/09/23 03:52:51;;;;;;;0.85;0.85;;;13.60;99.90;;;;;;5037100;28;20206;-71
2023/09/23 03:55:18;;;;;;;0.70;0.70;;;13.60;99.90;;;;;;5039030;28;20246;-71
2023/09/23 03:57:46;;;;;;;0.88;0.88;;;13.60;99.90;;;;;;5037043;28;20222;-71
2023/09/23 04:00:16;;;;;;;0.68;0.68;;;13.60;99.90;;;;;;5036159;28;20246;-71
2023/09/23 04:02:47;;;;;;;1.75;1.08;;;13.50;99.90;;;;;;5016520;28;20218;-71
2023/09/23 04:05:14;;;;;;;0.80;0.80;;;13.50;99.90;;;;;;5037925;28;20211;-71
2023/09/23 04:07:41;;;;;;;0.70;0.70;;;13.50;99.90;;;;;;5041529;28;20205;-71
2023/09/23 04:10:11;;;;;;;1.67;0.98;;;13.50;99.90;;;;;;5037413;28;20223;-71
2023/09/23 04:12:38;;;;;;;0.80;0.80;;;13.50;99.90;;;;;;5035473;28;20221;-72
2023/09/23 04:15:09;;;;;;;0.90;0.90;;;13.40;99.90;;;;;;5034810;28;20215;-71
2023/09/23 04:17:37;;;;;;;0.73;0.73;;;13.40;99.90;;;;;;5038166;28;20211;-71
2023/09/23 04:20:08;;;;;;;0.80;0.80;;;13.40;99.90;;;;;;5034856;28;20222;-71
2023/09/23 04:22:36;;;;;;;0.70;0.70;;;13.40;99.90;;;;;;5035265;28;20211;-71
2023/09/23 04:25:04;;;;;;;0.85;0.85;;;13.40;99.90;;;;;;5039257;28;20207;-71
2023/09/23 04:27:33;;;;;;;1.58;0.70;;;13.40;99.90;;;;;;5040762;28;20250;-71
2023/09/23 04:30:02;;;;;;;0.70;0.70;;;13.30;99.90;;;;;;5034380;28;20191;-71
2023/09/23 04:32:29;;;;;;;1.00;1.00;;;13.30;99.90;;;;;;5019568;28;20202;-71
2023/09/23 04:34:56;;;;;;;0.70;0.70;;;13.30;99.90;;;;;;5034969;28;20237;-71
2023/09/23 04:37:27;;;;;;;0.90;0.90;;;13.30;99.90;;;;;;5036965;28;20856;-71
2023/09/23 04:39:54;;;;;;;0.70;0.70;;;13.30;99.90;;;;;;5035615;28;20873;-72
2023/09/23 04:42:22;;;;;;;1.15;0.90;;;13.30;99.90;;;;;;5033795;28;20257;-71
2023/09/23 04:44:50;;;;;;;0.88;0.88;;;13.30;99.90;;;;;;5023537;28;20294;-71
2023/09/23 04:47:19;;;;;;;2.75;0.80;;;13.30;99.90;;;;;;5033986;28;20247;-71
2023/09/23 04:49:46;;;;;;;0.63;0.63;;;13.40;99.90;;;;;;5018963;28;20261;-72
2023/09/23 04:52:15;;;;;;;0.70;0.70;;;13.30;99.90;;;;;;5035801;28;20253;-71
2023/09/23 04:54:42;;;;;;;1.73;0.80;;;13.40;99.90;;;;;;5035052;28;20282;-71
2023/09/23 04:57:09;;;;;;;0.98;0.90;;;13.30;99.90;;;;;;5039236;28;20245;-72
2023/09/23 04:59:36;;;;;;;0.73;0.73;;;13.30;99.90;;;;;;5039647;28;20304;-71
2023/09/23 05:02:05;;;;;;;0.85;0.85;;;13.30;99.90;;;;;;5020394;28;20844;-71
2023/09/23 05:04:32;;;;;;;0.88;0.88;;;13.30;99.90;;;;;;5036759;28;20663;-71
2023/09/23 05:07:00;;;;;;;0.80;0.80;;;13.30;99.90;;;;;;5034899;28;20230;-70
2023/09/23 05:09:27;;;;;;;0.90;0.90;;;13.30;99.90;;;;;;5038736;28;20205;-71
2023/09/23 05:11:55;;;;;;;1.50;0.80;;;13.30;99.90;;;;;;5034278;28;20219;-72
2023/09/23 05:14:23;;;;;;;0.80;0.80;;;13.30;99.90;;;;;;5038157;28;20207;-71
2023/09/23 05:16:50;;;;;;;0.90;0.85;;;13.20;99.90;;;;;;5006331;28;20247;-72
2023/09/23 05:19:20;;;;;;;0.85;0.85;;;13.30;99.90;;;;;;5039702;28;20276;-72
2023/09/23 05:21:47;;;;;;;0.85;0.85;;;13.20;99.90;;;;;;5036666;28;20207;-71
2023/09/23 05:24:14;;;;;;;0.80;0.80;;;13.20;99.90;;;;;;5036105;28;20817;-71
2023/09/23 05:26:43;;;;;;;0.98;0.98;;;13.20;99.90;;;;;;5034412;28;20258;-71
2023/09/23 05:29:10;;;;;;;0.98;0.98;;;13.30;99.90;;;;;;5034127;28;20192;-71
2023/09/23 05:31:37;;;;;;;0.82;0.82;;;13.30;99.90;;;;;;5037405;28;20222;-72
2023/09/23 05:34:04;;;;;;;0.90;0.90;;;13.30;99.90;;;;;;5037967;28;20199;-71
2023/09/23 05:36:33;;;;;;;0.85;0.85;;;13.30;99.90;;;;;;5032835;28;20224;-71
2023/09/23 05:39:00;;;;;;;0.80;0.80;;;13.30;99.90;;;;;;5035869;28;20207;-71
2023/09/23 05:41:28;;;;;;;0.65;0.65;;;13.30;99.90;;;;;;5033958;28;20291;-72
2023/09/23 05:43:55;;;;;;;0.90;0.90;;;13.30;99.90;;;;;;5043387;28;20196;-71
2023/09/23 05:46:22;;;;;;;0.80;0.80;;;13.30;99.90;;;;;;5038426;28;20226;-71
2023/09/23 05:48:49;;;;;;;0.82;0.82;;;13.30;99.90;;;;;;5023659;28;20257;-71
2023/09/23 05:51:17;;;;;;;1.05;1.05;;;13.40;99.90;;;;;;5035730;28;20195;-71
2023/09/23 05:53:45;;;;;;;0.98;0.98;;;13.40;99.90;;;;;;5020979;28;20203;-71
2023/09/23 05:56:12;;;;;;;0.90;0.90;;;13.50;99.90;;;;;;5034630;28;20262;-71
2023/09/23 05:58:39;;;;;;;0.95;0.95;;;13.60;99.90;;;;;;5038877;28;20264;-72
2023/09/23 06:01:07;;;;;;;0.70;0.70;;;13.70;99.90;;;;;;5035380;28;20255;-71
2023/09/23 06:03:34;;;;;;;0.77;0.77;;;13.80;99.90;;;;;;5032379;28;20204;-71
2023/09/23 06:06:01;;;;;;;0.93;0.93;;;13.90;99.90;;;;;;5037796;28;20223;-71
2023/09/23 06:08:28;;;;;;;0.80;0.80;;;14.10;99.90;;;;;;5039424;28;20610;-71
2023/09/23 06:11:04;;;;;;;1.10;0.98;;;14.20;99.90;;;;;;5032682;28;20818;-72
2023/09/23 06:13:31;;;;;;;0.85;0.85;;;14.30;99.90;;;;;;5035626;28;20286;-72
2023/09/23 06:16:02;;;;;;;1.05;0.95;;;14.60;99.90;;;;;;5036076;28;20231;-72
2023/09/23 06:18:29;;;;;;;1.00;1.00;;;14.80;99.90;;;;;;5032969;28;20200;-71
2023/09/23 06:20:59;;;;;;;0.90;0.90;;;15.10;99.90;;;;;;5020756;28;20826;-71
2023/09/23 06:23:26;;;;;;;0.65;0.65;;;15.30;99.90;;;;;;5035347;28;20195;-71
2023/09/23 06:25:54;;;;;;;0.82;0.82;;;15.40;99.90;;;;;;5037850;28;20224;-72
2023/09/23 06:28:23;;;;;;;1.20;1.10;;;15.50;99.90;;;;;;5040663;28;20199;-73
2023/09/23 06:30:50;;;;;;;0.90;0.90;;;15.70;99.90;;;;;;5017442;28;20727;-72
2023/09/23 06:33:17;;;;;;;0.90;0.90;;;15.70;99.90;;;;;;5031567;28;20855;-71
2023/09/23 06:35:44;;;;;;;1.40;0.98;;;16.20;99.90;;;;;;5040464;28;20776;-71
2023/09/23 06:38:11;;;;;;;1.20;1.10;;;17.00;99.90;;;;;;5035006;28;20559;-72
2023/09/23 06:40:38;;;;;;;2.17;1.23;;;17.60;99.90;;;;;;5034784;28;20777;-71
2023/09/23 06:43:05;;;;;;;1.10;1.00;;;18.10;99.90;;;;;;5019826;28;20200;-71
2023/09/23 06:45:35;;;;;;;0.93;0.93;;;18.60;99.90;;;;;;5035366;28;20780;-71
2023/09/23 06:48:02;;;;;;;3.78;1.08;;;18.60;99.90;;;;;;5035472;28;20199;-72
2023/09/23 06:50:29;;;;;;;0.80;0.80;;;18.30;99.90;;;;;;5032190;28;20721;-71
2023/09/23 06:52:57;;;;;;;0.90;0.90;;;17.80;99.90;;;;;;5018820;28;20195;-71
2023/09/23 06:55:24;;;;;;;0.80;0.80;;;17.20;99.90;;;;;;5041081;28;20227;-71
2023/09/23 06:57:51;;;;;;;1.15;1.00;;;17.20;99.90;;;;;;5040269;28;20203;-71
2023/09/23 07:00:18;;;;;;;1.27;1.00;;;17.90;99.90;;;;;;5038086;28;20251;-71
2023/09/23 07:02:47;;;;;;;1.38;0.70;;;18.60;99.90;;;;;;5038963;28;20195;-71
2023/09/23 07:05:14;;;;;;;1.60;0.93;;;19.10;99.90;;;;;;5036637;28;20261;-71
2023/09/23 07:07:40;;;;;;;0.68;0.68;;;19.50;99.90;;;;;;5041295;28;20252;-73
2023/09/23 07:10:09;;;;;;;1.02;0.77;;;19.80;99.90;;;;;;5018345;28;20207;-71
2023/09/23 07:12:36;;;;;;;0.70;0.70;;;20.00;99.90;;;;;;5041076;28;20199;-71
2023/09/23 07:15:04;;;;;;;0.95;0.80;;;19.60;99.90;;;;;;5036975;28;20703;-71
2023/09/23 07:17:31;;;;;;;0.80;0.80;;;19.20;99.90;;;;;;5022180;28;20258;-70
2023/09/23 07:20:00;;;;;;;0.70;0.70;;;19.30;99.90;;;;;;5039067;28;20277;-71
2023/09/23 07:22:27;;;;;;;0.95;0.80;;;19.10;99.90;;;;;;5037073;28;20211;-71
2023/09/23 07:24:54;;;;;;;1.65;0.80;;;19.20;99.90;;;;;;5040303;28;20324;-72
2023/09/23 07:27:22;;;;;;;0.80;0.80;;;19.50;99.90;;;;;;5036393;28;20235;-73
2023/09/23 07:29:49;;;;;;;1.10;0.80;;;19.70;99.90;;;;;;5040464;28;20669;-71
2023/09/23 07:32:16;;;;;;;0.90;0.90;;;19.70;99.90;;;;;;5042619;28;20199;-71
2023/09/23 07:34:43;;;;;;;0.82;0.80;;;19.40;99.90;;;;;;5039899;28;20195;-71
2023/09/23 07:37:13;;;;;;;0.85;0.70;;;19.30;99.90;;;;;;5035103;28;20282;-71
2023/09/23 07:39:40;;;;;;;1.00;0.73;;;19.40;99.90;;;;;;5038193;28;20207;-70
2023/09/23 07:42:07;;;;;;;0.80;0.80;;;19.60;99.90;;;;;;5033909;28;20914;-71
2023/09/23 07:44:34;;;;;;;0.75;0.75;;;19.70;99.90;;;;;;5030811;28;20257;-71
2023/09/23 07:47:01;;;;;;;1.45;0.77;;;20.00;99.90;;;;;;5032689;28;20223;-73
2023/09/23 07:49:28;;;;;;;0.90;0.80;;;20.30;99.90;;;;;;5034133;28;20203;-71
2023/09/23 07:51:58;;;;;;;1.60;0.82;;;20.10;99.90;;;;;;5021056;28;20302;-72
2023/09/23 07:54:27;;;;;;;1.27;0.90;;;19.90;99.90;;;;;;5037278;28;20751;-72
2023/09/23 07:56:54;;;;;;;0.60;0.60;;;19.80;99.90;;;;;;5020942;28;20977;-73
2023/09/23 07:59:21;;;;;;;1.92;1.05;;;19.80;99.90;;;;;;5031128;28;20382;-71
2023/09/23 08:01:48;;;;;;;0.85;0.70;;;19.90;99.90;;;;;;5032378;28;20227;-71
2023/09/23 08:04:15;;;;;;;1.30;0.88;;;20.00;99.90;;;;;;5036533;28;20634;-71
2023/09/23 08:06:42;;;;;;;1.23;0.80;;;20.10;99.90;;;;;;5037014;28;20211;-71
2023/09/23 08:09:10;;;;;;;1.48;0.70;;;20.10;99.90;;;;;;5036526;28;20261;-73
2023/09/23 08:11:38;;;;;;;2.65;1.00;;;20.30;99.90;;;;;;5033924;28;20860;-71
2023/09/23 08:14:05;;;;;;;0.60;0.60;;;20.50;99.90;;;;;;5031372;28;20202;-74
2023/09/23 08:16:32;;;;;;;0.75;0.70;;;20.50;99.90;;;;;;5033007;28;20892;-75
2023/09/23 08:18:59;;;;;;;1.00;0.90;;;20.50;99.90;;;;;;5035352;28;20194;-74
2023/09/23 08:21:26;;;;;;;0.98;0.90;;;20.50;99.90;;;;;;5035143;28;20814;-74
2023/09/23 08:23:53;;;;;;;0.80;0.80;;;20.30;99.90;;;;;;5013955;28;20284;-74
2023/09/23 08:26:20;;;;;;;1.00;0.90;;;20.20;99.90;;;;;;5032616;28;20231;-74
2023/09/23 08:28:49;;;;;;;3.00;1.02;;;20.50;99.90;;;;;;5036249;28;20238;-75
2023/09/23 08:31:16;;;;;;;2.25;0.90;;;20.50;99.90;;;;;;5033599;28;20199;-75
2023/09/23 08:33:43;;;;;;;1.48;0.73;;;20.50;99.90;;;;;;5013832;28;20544;-75
2023/09/23 08:36:09;;;;;;;0.70;0.70;;;20.60;99.90;;;;;;5027562;28;20230;-75
2023/09/23 08:38:36;;;;;;;1.02;0.85;;;20.50;99.90;;;;;;5032678;28;20200;-75
2023/09/23 08:41:06;;;;;;;1.90;0.80;;;20.70;99.90;;;;;;5014074;28;20219;-75
2023/09/23 08:43:37;;;;;;;0.73;0.73;;;21.00;99.90;;;;;;5032398;28;20202;-75
2023/09/23 08:46:07;;;;;;;1.25;0.68;;;21.20;99.90;;;;;;5029483;28;20322;-75
2023/09/23 08:48:36;;;;;;;0.93;0.70;;;21.30;99.90;;;;;;5015792;28;20199;-75
2023/09/23 08:51:04;;;;;;;0.57;0.57;;;21.20;99.90;;;;;;5017558;28;20244;-75
2023/09/23 08:53:33;;;;;;;0.75;0.75;;;21.10;99.90;;;;;;5030134;28;20203;-75
2023/09/23 08:56:01;;;;;;;0.73;0.73;;;21.30;99.90;;;;;;5036871;28;20226;-75
2023/09/23 08:58:28;;;;;;;0.75;0.75;;;21.40;99.90;;;;;;5037835;28;20203;-75
2023/09/23 09:00:56;;;;;;;1.42;0.80;;;21.30;99.90;;;;;;5032029;28;20219;-76
2023/09/23 09:03:26;;;;;;;1.50;1.02;;;21.40;99.90;;;;;;5017442;28;20211;-76
2023/09/23 09:05:53;;;;;;;0.77;0.60;;;21.30;99.90;;;;;;5037592;28;20223;-76
2023/09/23 09:08:20;;;;;;;2.78;0.80;;;21.20;99.90;;;;;;5037720;28;20207;-76
2023/09/23 09:10:48;;;;;;;3.03;0.77;;;21.10;99.90;;;;;;5032452;28;20226;-76
2023/09/23 09:13:17;;;;;;;0.95;0.90;;;21.10;99.90;;;;;;5017066;28;20840;-76
2023/09/23 09:15:45;;;;;;;0.93;0.85;;;21.40;99.90;;;;;;5019983;28;20237;-76
2023/09/23 09:18:12;;;;;;;1.00;0.70;;;21.50;99.90;;;;;;5017270;28;20936;-76
2023/09/23 09:20:42;;;;;;;0.60;0.60;;;21.60;99.90;;;;;;5030618;28;20657;-75
2023/09/23 09:23:12;;;;;;;0.82;0.60;;;21.40;99.90;;;;;;5031461;28;20207;-76
2023/09/23 09:25:40;;;;;;;0.80;0.80;;;21.30;99.90;;;;;;5031851;28;20717;-76
2023/09/23 09:28:10;;;;;;;1.10;0.80;;;21.30;99.90;;;;;;5032493;28;20203;-76
2023/09/23 09:30:37;;;;;;;0.80;0.80;;;21.30;99.90;;;;;;5027441;28;20203;-76
2023/09/23 09:33:08;;;;;;;0.80;0.80;;;21.50;99.90;;;;;;5028353;28;20206;-75
2023/09/23 09:35:36;;;;;;;0.70;0.70;;;21.40;99.90;;;;;;5032605;28;20218;-73
2023/09/23 09:38:07;;;;;;;0.60;0.60;;;21.40;99.90;;;;;;5029636;28;20285;-75
2023/09/23 09:40:34;;;;;;;3.30;0.77;;;21.50;99.90;;;;;;5030217;28;20222;-76
2023/09/23 09:43:01;;;;;;;5.38;1.27;;;21.60;99.90;;;;;;5034888;28;20268;-74
2023/09/23 09:45:34;;;;;;;0.95;0.70;;;22.10;99.90;;;;;;5030706;28;20222;-75
2023/09/23 09:48:03;;;;;;;0.63;0.63;;;22.60;99.90;;;;;;5029272;28;20735;-76
2023/09/23 09:50:34;;;;;;;2.40;0.75;;;23.00;99.90;;;;;;5018046;28;20312;-75
2023/09/23 09:53:05;;;;;;;1.45;0.60;;;22.80;99.90;;;;;;5031511;28;20241;-75
2023/09/23 09:55:34;;;;;;;0.85;0.82;;;22.70;99.90;;;;;;5031039;28;20227;-76
2023/09/23 09:58:02;;;;;;;1.17;0.70;;;22.60;99.90;;;;;;5030970;28;20273;-75
2023/09/23 10:00:30;;;;;;;0.70;0.70;;;22.60;99.90;;;;;;5033169;28;20312;-75
2023/09/23 10:03:00;;;;;;;0.60;0.60;;;22.60;99.90;;;;;;5030161;28;20311;-75
2023/09/23 10:05:35;;;;;;;1.58;0.80;;;22.60;99.90;;;;;;5029671;28;20696;-75
2023/09/23 10:08:13;;;;;;;0.80;0.70;;;22.40;99.90;;;;;;5033291;28;20201;-76
2023/09/23 10:10:47;;;;;;;1.70;0.80;;;22.10;99.90;;;;;;5011989;28;20202;-74
2023/09/23 10:13:15;;;;;;;0.82;0.70;;;22.20;99.90;;;;;;5030283;28;20211;-75
2023/09/23 10:15:43;;;;;;;0.60;0.60;;;22.30;99.90;;;;;;5035860;28;20919;-75
2023/09/23 10:18:12;;;;;;;0.63;0.63;;;22.30;99.90;;;;;;5033509;28;20207;-75
2023/09/23 10:20:46;;;;;;;1.35;0.85;;;22.40;99.90;;;;;;5029637;28;20215;-74
2023/09/23 10:23:17;;;;;;;1.73;0.70;;;22.30;99.90;;;;;;5030777;28;20196;-76
2023/09/23 10:25:47;;;;;;;0.60;0.60;;;22.60;99.90;;;;;;5030584;28;20223;-74
2023/09/23 10:28:21;;;;;;;0.60;0.60;;;22.80;99.90;;;;;;5024738;28;20238;-75
2023/09/23 10:30:59;;;;;;;0.60;0.60;;;23.00;99.90;;;;;;5039930;28;20199;-73
2023/09/23 10:33:26;;;;;;;2.03;0.70;;;23.00;99.90;;;;;;5029785;28;20195;-73
2023/09/23 10:35:53;;;;;;;1.77;0.50;;;22.90;99.90;;;;;;5033757;28;20247;-74
2023/09/23 10:38:23;;;;;;;1.58;0.65;;;22.80;99.90;;;;;;5035578;28;20199;-73
2023/09/23 10:40:53;;;;;;;0.82;0.63;;;23.00;99.90;;;;;;5033908;28;20216;-73
2023/09/23 10:43:21;;;;;;;0.80;0.60;;;22.80;99.90;;;;;;5037134;28;20661;-73
2023/09/23 10:45:49;;;;;;;0.65;0.65;;;22.90;99.90;;;;;;5035160;28;20943;-73
2023/09/23 10:48:16;;;;;;;1.55;0.70;;;23.00;99.90;;;;;;5034563;28;20204;-73
2023/09/23 10:50:44;;;;;;;0.80;0.50;;;23.00;99.90;;;;;;5036382;28;20207;-74
2023/09/23 10:53:12;;;;;;;1.75;0.57;;;22.90;99.90;;;;;;5036502;28;20207;-73
2023/09/23 10:55:39;;;;;;;0.60;0.60;;;22.80;99.90;;;;;;5036039;28;20276;-74
2023/09/23 10:58:08;;;;;;;0.73;0.60;;;22.90;99.90;;;;;;5038024;28;21514;-73
2023/09/23 11:00:36;;;;;;;0.50;0.50;;;22.90;99.90;;;;;;5031474;28;20238;-74
2023/09/23 11:03:07;;;;;;;0.60;0.60;;;22.90;99.90;;;;;;5032809;28;20688;-74
2023/09/23 11:05:37;;;;;;;0.70;0.70;;;22.90;99.90;;;;;;5032825;28;20222;-73
2023/09/23 11:08:05;;;;;;;0.68;0.68;;;22.80;99.90;;;;;;5036623;28;20231;-73
2023/09/23 11:10:33;;;;;;;0.50;0.50;;;22.80;99.90;;;;;;5033216;28;20623;-73
2023/09/23 11:13:00;;;;;;;2.10;0.50;;;23.00;99.90;;;;;;5035242;28;20615;-73
2023/09/23 11:15:30;;;;;;;0.60;0.60;;;23.00;99.90;;;;;;5038364;28;20728;-74
2023/09/23 11:17:57;;;;;;;0.70;0.70;;;22.80;99.90;;;;;;5011591;28;20204;-72
2023/09/23 11:20:28;;;;;;;1.45;0.60;;;22.70;99.90;;;;;;5036312;28;20227;-73
2023/09/23 11:23:00;;;;;;;0.98;0.60;;;22.40;99.90;;;;;;5033303;28;20243;-74
2023/09/23 11:25:28;;;;;;;0.68;0.68;;;22.50;99.90;;;;;;5036829;28;20314;-73
2023/09/23 11:27:59;;;;;;;1.38;0.60;;;22.70;99.90;;;;;;5035267;28;20252;-73
2023/09/23 11:30:27;;;;;;;0.68;0.68;;;22.90;99.90;;;;;;5034954;28;20738;-73
2023/09/23 11:32:56;;;;;;;0.50;0.50;;;23.00;99.90;;;;;;5039081;28;20199;-74
2023/09/23 11:35:24;;;;;;;0.70;0.70;;;23.00;99.90;;;;;;5035248;28;20223;-73
2023/09/23 11:37:53;;;;;;;0.63;0.60;;;23.10;99.90;;;;;;5031054;28;20740;-73
2023/09/23 11:40:23;;;;;;;0.60;0.60;;;23.30;99.90;;;;;;5032337;28;20727;-73
2023/09/23 11:42:51;;;;;;;0.60;0.60;;;23.10;99.90;;;;;;5017055;28;20220;-73
2023/09/23 11:45:20;;;;;;;3.03;0.70;;;23.10;99.90;;;;;;5035656;28;20310;-74
2023/09/23 11:47:48;;;;;;;0.50;0.50;;;23.10;99.90;;;;;;5023187;28;20199;-74
2023/09/23 11:50:17;;;;;;;0.60;0.60;;;23.20;99.90;;;;;;5035577;28;20675;-73
2023/09/23 11:52:44;;;;;;;1.05;0.68;;;23.40;99.90;;;;;;5019549;28;20278;-73
2023/09/23 11:55:12;;;;;;;0.65;0.60;;;23.50;99.90;;;;;;5034957;28;20274;-74
2023/09/23 11:57:40;;;;;;;0.73;0.40;;;23.40;99.90;;;;;;5029995;28;20195;-73
2023/09/23 12:00:10;;;;;;;2.33;0.80;;;23.50;99.90;;;;;;5035992;28;20207;-74
2023/09/23 12:02:39;;;;;;;1.00;0.50;;;23.40;99.90;;;;;;5033588;28;20215;-73
2023/09/23 12:05:07;;;;;;;0.50;0.50;;;23.20;99.90;;;;;;5031293;28;20755;-73
2023/09/23 12:07:36;;;;;;;0.98;0.60;;;23.20;99.90;;;;;;5038413;28;20199;-73
2023/09/23 12:10:04;;;;;;;0.50;0.50;;;23.30;99.90;;;;;;5035932;28;20206;-74
2023/09/23 12:12:32;;;;;;;0.60;0.40;;;23.60;99.90;;;;;;5040871;28;20195;-73
2023/09/23 12:14:59;;;;;;;0.55;0.40;;;23.70;99.90;;;;;;5033999;28;20825;-73
2023/09/23 12:17:26;;;;;;;0.50;0.50;;;23.70;99.90;;;;;;5036356;28;20714;-73
2023/09/23 12:19:53;;;;;;;0.47;0.47;;;23.40;99.90;;;;;;5031606;28;20270;-74
2023/09/23 12:22:20;;;;;;;0.40;0.40;;;23.20;99.90;;;;;;5035620;28;20216;-73
2023/09/23 12:24:52;;;;;;;0.50;0.50;;;23.30;99.90;;;;;;5032646;28;20289;-74
2023/09/23 12:27:21;;;;;;;0.60;0.60;;;23.40;99.90;;;;;;5035078;28;20227;-73
2023/09/23 12:29:48;;;;;;;0.47;0.47;;;23.40;99.90;;;;;;5040046;28;20281;-75
2023/09/23 12:32:15;;;;;;;0.50;0.50;;;23.40;99.90;;;;;;5031906;28;20869;-74
2023/09/23 12:34:44;;;;;;;0.50;0.50;;;23.30;99.90;;;;;;5033043;28;20203;-73
2023/09/23 12:37:12;;;;;;;0.50;0.50;;;23.30;99.90;;;;;;5033790;28;20289;-73
2023/09/23 12:39:40;;;;;;;0.30;0.30;;;23.30;99.90;;;;;;5030221;28;20191;-73
2023/09/23 12:42:09;;;;;;;0.50;0.50;;;23.30;99.90;;;;;;5036220;28;20225;-72
2023/09/23 12:44:36;;;;;;;0.98;0.40;;;23.30;99.90;;;;;;5034815;28;20206;-73
2023/09/23 12:47:03;;;;;;;0.63;0.55;;;23.10;99.90;;;;;;5017059;28;20211;-73
2023/09/23 12:49:30;;;;;;;0.50;0.50;;;23.00;99.90;;;;;;5016354;28;20915;-72
2023/09/23 12:51:57;;;;;;;0.50;0.50;;;23.00;99.90;;;;;;5030606;28;20195;-72
2023/09/23 12:54:24;;;;;;;0.73;0.50;;;23.10;99.90;;;;;;5031050;28;20584;-74